Airfield :
LOGIN :

Register | Disclaimer

   EN    FR    IT 

 










Legend :    VFR   Marginal VFR   IFR   Intensive IFR   Very Intensive IFR
Visi :
Ceiling :
>= 8 km
>= 3000ft
5 to 8 km
1000 to 3000 ft
1500m to 5 km
500 to 1000 ft
800 to 1500m
200 to 500 ft
< 800m
< 200 ft
Symbols :   Thunderstorms  Fog  Heavy snow  Heavy precipitations  Wind > 20 kt
SIGMETs :     Misc.  Thunderstorms  Icing  Turbulence  Mountain Waves  Volcanic Ashes






- Airport Elevation : 485 ft
- IATA code : QSA


LELL - Sabadell

CURRENT METAR :
  • 130230Z AUTO 28003KT CAVOK 23/21 Q1014

EXPIRED METARs :
  • 130200Z AUTO VRB02KT CAVOK 23/21 Q1014
  • 130130Z AUTO 28004KT CAVOK 23/22 Q1014
  • 130100Z AUTO 00000KT CAVOK 23/22 Q1014
  • 130030Z AUTO 00000KT CAVOK 24/22 Q1014
  • 130000Z AUTO 00000KT CAVOK 24/22 Q1014

TAF TAF LELL
Valid from the 13 at 03:00 until the 14 at 03:00 UTC


130200Z 1303/1403 VRB05KT 9999 FEW040 TX33/1315Z TN20/1306Z
BECMG 1312/1314 17010KT
PROB40
TEMPO 1314/1316 4000 TSRA FEW030CB
BECMG 1318/1320 VRB03KT



MET'MAP, your aeronautical weather chart ! - Copyright ORBIFLY December 2007 - Disclaimer

ORBIFLY MET'MAP TEAM :

Programming & Development : Alexandra Zaïnal
Concept & original design : Baudouin d'Aumeries
Assistance for programming : Marc-Olivier Méhu
Technical & hardware support : Manuel Goepfert

Contact : metmap@orbifly.com




SOURCES & CREDITS :

   NOAA